createdAt,value
2022-12-23T00:02:10.878Z,180.02
2022-12-23T00:04:43.690Z,173.98
2022-12-23T00:07:13.891Z,174.55
2022-12-23T00:09:44.090Z,169.68
2022-12-23T00:12:26.502Z,176.10
2022-12-23T00:15:09.020Z,180.90
2022-12-23T00:17:43.860Z,188.82
2022-12-23T00:20:19.252Z,177.10
2022-12-23T00:23:01.850Z,179.40
2022-12-23T00:25:45.059Z,181.63
2022-12-23T00:28:17.718Z,172.27
2022-12-23T00:30:49.798Z,177.40
2022-12-23T00:33:22.641Z,169.52
2022-12-23T00:35:56.022Z,165.50
2022-12-23T00:38:38.697Z,170.82
2022-12-23T00:41:21.866Z,161.70
2022-12-23T00:43:52.420Z,172.07
2022-12-23T00:46:22.516Z,158.82
2022-12-23T00:49:05.002Z,160.88
2022-12-23T00:51:37.794Z,161.60
2022-12-23T00:54:08.426Z,161.88
2022-12-23T00:56:38.765Z,184.98
2022-12-23T00:59:09.517Z,158.68
2022-12-23T01:01:52.226Z,163.45
2022-12-23T01:04:35.682Z,156.93
2022-12-23T01:07:09.595Z,156.17
2022-12-23T01:12:10.423Z,148.27
2022-12-23T01:14:41.180Z,149.23
2022-12-23T01:17:12.059Z,165.30
2022-12-23T01:19:42.323Z,172.77
2022-12-23T01:22:14.987Z,167.60
2022-12-23T01:24:45.043Z,159.70
2022-12-23T01:27:15.361Z,163.82
2022-12-23T01:29:45.589Z,180.32
2022-12-23T01:32:15.740Z,171.27
2022-12-23T01:34:45.863Z,180.25
2022-12-23T01:37:18.846Z,181.20
2022-12-23T01:39:49.105Z,182.13
2022-12-23T01:42:34.301Z,187.18
2022-12-23T01:45:05.504Z,151.77
2022-12-23T01:47:40.753Z,192.70
2022-12-23T01:50:15.982Z,178.63
2022-12-23T01:52:53.705Z,178.25
2022-12-23T01:55:28.265Z,190.68
2022-12-23T01:58:03.534Z,186.50
2022-12-23T02:01:04.128Z,183.40
2022-12-23T02:03:46.800Z,164.05
2022-12-23T02:06:35.302Z,185.52
2022-12-23T02:09:20.552Z,194.13
2022-12-23T02:12:28.558Z,198.77
2022-12-23T02:15:41.932Z,180.88
2022-12-23T02:18:42.261Z,176.63
2022-12-23T02:21:30.603Z,186.45
2022-12-23T02:24:45.085Z,186.45
2022-12-23T02:27:30.158Z,173.88
2022-12-23T02:30:42.477Z,182.48
2022-12-23T02:33:35.546Z,176.73
2022-12-23T02:36:21.235Z,190.02
2022-12-23T02:39:02.560Z,171.65
2022-12-23T02:41:40.367Z,176.52
2022-12-23T02:44:20.343Z,159.18
2022-12-23T02:46:55.136Z,175.93
2022-12-23T02:49:33.564Z,161.10
2022-12-23T02:52:08.256Z,154.77
2022-12-23T02:54:44.049Z,160.27
2022-12-23T02:57:16.535Z,161.52
2022-12-23T02:59:51.560Z,147.35
2022-12-23T03:02:21.998Z,163.88
2022-12-23T03:04:54.989Z,161.02
2022-12-23T03:07:33.197Z,163.98
2022-12-23T03:10:11.468Z,169.10
2022-12-23T03:12:54.469Z,155.88
2022-12-23T03:15:40.403Z,168.18
2022-12-23T03:18:21.676Z,166.32
2022-12-23T03:20:57.793Z,150.52
2022-12-23T03:23:32.671Z,158.77
2022-12-23T03:26:07.260Z,162.18
2022-12-23T03:28:43.431Z,144.85
2022-12-23T03:31:17.895Z,145.30
2022-12-23T03:33:52.682Z,142.02
2022-12-23T03:36:28.140Z,142.93
2022-12-23T03:39:00.430Z,140.98
2022-12-23T03:41:34.553Z,149.98
2022-12-23T03:44:08.614Z,128.57
2022-12-23T03:46:43.277Z,156.10
2022-12-23T03:49:19.291Z,158.15
2022-12-23T03:51:57.474Z,159.30
2022-12-23T03:54:34.813Z,148.38
2022-12-23T03:57:08.566Z,140.77
2022-12-23T03:59:42.217Z,136.40
2022-12-23T04:02:19.192Z,149.50
2022-12-23T04:05:04.278Z,146.73
2022-12-23T04:07:41.729Z,128.88
2022-12-23T04:10:13.566Z,131.63
2022-12-23T04:12:44.271Z,134.48
2022-12-23T04:15:14.890Z,129.27
2022-12-23T04:17:45.077Z,119.57
2022-12-23T04:20:15.545Z,117.60
2022-12-23T04:22:48.544Z,116.68
2022-12-23T04:25:20.115Z,144.57
2022-12-23T04:27:50.227Z,136.20
2022-12-23T04:30:20.722Z,109.38
2022-12-23T04:32:51.193Z,109.47
2022-12-23T04:35:21.608Z,124.18
2022-12-23T04:37:54.298Z,106.97
2022-12-23T04:40:24.499Z,105.72
2022-12-23T04:42:54.594Z,140.52
2022-12-23T04:45:26.899Z,112.00
2022-12-23T04:47:57.839Z,95.30
2022-12-23T04:50:27.865Z,95.60
2022-12-23T04:53:00.672Z,89.80
2022-12-23T04:55:30.867Z,112.63
2022-12-23T04:58:01.277Z,117.82
2022-12-23T05:00:39.127Z,217.35
2022-12-23T05:03:10.467Z,172.48
2022-12-23T05:05:46.129Z,120.60
2022-12-23T05:08:19.041Z,110.85
2022-12-23T05:10:49.099Z,129.85
2022-12-23T05:13:19.398Z,115.60
2022-12-23T05:15:51.976Z,124.18
2022-12-23T05:18:23.531Z,109.15
2022-12-23T05:20:54.143Z,157.98
2022-12-23T05:23:31.571Z,148.65
2022-12-23T05:26:02.164Z,160.57
2022-12-23T05:28:35.589Z,168.55
2022-12-23T05:31:07.907Z,127.93
2022-12-23T05:33:38.793Z,134.68
2022-12-23T05:36:09.963Z,127.43
2022-12-23T05:38:42.613Z,146.07
2022-12-23T05:41:12.775Z,147.20
2022-12-23T05:43:43.031Z,121.90
2022-12-23T05:46:13.179Z,113.97
2022-12-23T05:48:43.896Z,121.38
2022-12-23T05:51:18.481Z,130.70
2022-12-23T05:53:54.979Z,124.28
2022-12-23T05:56:44.823Z,111.72
2022-12-23T05:59:15.882Z,138.63
2022-12-23T06:01:51.463Z,144.88
2022-12-23T06:04:26.371Z,115.40
2022-12-23T06:06:57.045Z,136.82
2022-12-23T06:09:31.562Z,137.18
2022-12-23T06:12:01.845Z,107.30
2022-12-23T06:14:38.588Z,121.88
2022-12-23T06:17:12.530Z,121.20
2022-12-23T06:19:42.920Z,111.07
2022-12-23T06:22:14.383Z,119.80
2022-12-23T06:24:49.640Z,109.95
2022-12-23T06:27:21.753Z,95.75
2022-12-23T06:29:52.170Z,84.35
2022-12-23T06:32:23.732Z,105.50
2022-12-23T06:34:53.827Z,87.40
2022-12-23T06:37:24.190Z,94.18
2022-12-23T06:39:56.994Z,93.35
2022-12-23T06:42:27.123Z,81.40
2022-12-23T06:44:57.215Z,104.75
2022-12-23T06:47:27.297Z,86.32
2022-12-23T06:49:57.837Z,87.68
2022-12-23T06:52:27.948Z,98.25
2022-12-23T06:55:00.763Z,81.90
2022-12-23T06:57:30.748Z,86.18
2022-12-23T07:00:00.795Z,84.18
2022-12-23T07:02:30.978Z,108.07
2022-12-23T07:05:01.159Z,108.30
2022-12-23T07:07:32.343Z,92.30
2022-12-23T07:10:08.643Z,86.80
2022-12-23T07:12:38.901Z,74.25
2022-12-23T07:15:12.569Z,74.18
2022-12-23T07:17:43.948Z,72.97
2022-12-23T07:20:17.047Z,74.07
2022-12-23T07:22:47.909Z,84.38
2022-12-23T07:25:25.003Z,74.38
2022-12-23T07:27:56.962Z,66.43
2022-12-23T07:30:29.459Z,85.57
2022-12-23T07:32:59.887Z,105.03
2022-12-23T07:35:31.552Z,89.93
2022-12-23T07:38:01.832Z,99.68
2022-12-23T07:40:35.564Z,94.03
2022-12-23T07:43:06.221Z,78.57
2022-12-23T07:45:38.005Z,97.45
2022-12-23T07:48:09.751Z,98.72
2022-12-23T07:50:39.857Z,81.03
2022-12-23T07:53:12.570Z,92.05
2022-12-23T07:55:49.112Z,96.65
2022-12-23T07:58:24.873Z,92.07
2022-12-23T08:01:03.547Z,89.82
2022-12-23T08:03:34.947Z,98.50
2022-12-23T08:06:11.331Z,95.63
2022-12-23T08:08:43.784Z,100.32
2022-12-23T08:11:18.596Z,89.68
2022-12-23T08:13:49.770Z,94.38
2022-12-23T08:16:23.330Z,93.00
2022-12-23T08:18:55.040Z,89.47
2022-12-23T08:21:26.155Z,93.75
2022-12-23T08:23:59.641Z,89.95
2022-12-23T08:26:32.462Z,84.53
2022-12-23T08:29:04.059Z,97.22
2022-12-23T08:31:34.851Z,102.22
2022-12-23T08:34:06.009Z,113.47
2022-12-23T08:36:40.097Z,96.30
2022-12-23T08:39:13.557Z,101.40
2022-12-23T08:41:52.164Z,108.03
2022-12-23T08:44:22.259Z,112.60
2022-12-23T08:46:52.963Z,104.55
2022-12-23T08:49:24.143Z,97.45
2022-12-23T08:51:55.013Z,95.85
2022-12-23T08:54:27.243Z,99.22
2022-12-23T08:56:59.933Z,101.43
2022-12-23T08:59:30.839Z,105.80
2022-12-23T09:02:03.578Z,103.35
2022-12-23T09:04:33.936Z,104.03
2022-12-23T09:07:04.893Z,119.53
2022-12-23T09:09:36.627Z,126.18
2022-12-23T09:12:12.115Z,118.38
2022-12-23T09:14:43.338Z,128.00
2022-12-23T09:17:13.927Z,128.20
2022-12-23T09:19:52.286Z,138.38
2022-12-23T09:22:23.917Z,126.60
2022-12-23T09:25:05.549Z,149.82
2022-12-23T09:27:49.056Z,126.43
2022-12-23T09:30:25.479Z,140.48
2022-12-23T09:32:57.036Z,176.73
2022-12-23T09:35:27.926Z,185.35
2022-12-23T09:38:01.989Z,182.60
2022-12-23T09:40:36.173Z,175.15
2022-12-23T09:43:20.533Z,124.93
2022-12-23T09:46:07.304Z,198.52
2022-12-23T09:48:47.116Z,133.00
2022-12-23T09:51:25.548Z,111.85
2022-12-23T09:54:02.669Z,109.88
2022-12-23T09:56:41.263Z,109.38
2022-12-23T09:59:27.584Z,114.60
2022-12-23T10:02:07.292Z,113.22
2022-12-23T10:04:48.786Z,112.65
2022-12-23T10:07:32.708Z,167.13
2022-12-23T10:10:14.829Z,137.50
2022-12-23T10:12:50.104Z,113.45
2022-12-23T10:15:37.404Z,118.28
2022-12-23T10:18:16.949Z,111.88
2022-12-23T10:21:02.998Z,110.78
2022-12-23T10:23:44.362Z,114.13
2022-12-23T10:26:28.228Z,110.70
2022-12-23T10:29:07.592Z,122.50
2022-12-23T10:32:05.405Z,109.13
2022-12-23T10:34:49.609Z,103.93
2022-12-23T10:40:12.969Z,97.82
2022-12-23T10:42:52.069Z,99.43
2022-12-23T10:46:06.120Z,96.00
2022-12-23T10:48:58.058Z,102.40
2022-12-23T10:51:35.681Z,100.03
2022-12-23T10:54:11.730Z,107.75
2022-12-23T10:56:41.986Z,103.20
2022-12-23T10:59:18.019Z,102.47
2022-12-23T11:01:57.308Z,120.45
2022-12-23T11:04:37.012Z,104.13
2022-12-23T11:07:42.901Z,99.97
2022-12-23T11:10:04.478Z,95.60
2022-12-23T11:15:35.382Z,90.43
2022-12-23T11:18:13.082Z,96.55
2022-12-23T11:20:49.784Z,99.43
2022-12-23T11:23:27.896Z,115.65
2022-12-23T11:26:07.596Z,165.80
2022-12-23T11:28:40.604Z,96.88
2022-12-23T11:31:14.668Z,106.20
2022-12-23T11:33:52.204Z,94.70
2022-12-23T11:36:27.933Z,91.47
2022-12-23T11:39:06.123Z,119.43
2022-12-23T11:41:40.725Z,85.75
2022-12-23T11:44:22.590Z,119.70
2022-12-23T11:46:55.759Z,84.78
2022-12-23T11:49:27.847Z,85.25
2022-12-23T11:52:15.787Z,83.95
2022-12-23T11:54:55.007Z,75.80
2022-12-23T11:57:30.511Z,78.72
2022-12-23T12:00:04.594Z,72.43
2022-12-23T12:02:39.396Z,76.57
2022-12-23T12:05:23.092Z,72.00
2022-12-23T12:08:01.758Z,120.68
2022-12-23T12:10:36.323Z,239.05
2022-12-23T12:13:09.140Z,189.70
2022-12-23T12:15:47.465Z,182.02
2022-12-23T12:18:22.495Z,138.10
2022-12-23T12:20:56.883Z,104.57
2022-12-23T12:23:33.306Z,76.07
2022-12-23T12:26:06.583Z,73.88
2022-12-23T12:28:41.695Z,69.50
2022-12-23T12:31:23.317Z,78.35
2022-12-23T12:34:01.057Z,76.38
2022-12-23T12:36:41.411Z,69.38
2022-12-23T12:39:21.280Z,70.88
2022-12-23T12:42:00.151Z,65.32
2022-12-23T12:44:44.565Z,49.95
2022-12-23T12:50:19.183Z,49.85
2022-12-23T12:52:49.925Z,40.67
2022-12-23T12:55:29.504Z,28.70
2022-12-23T12:58:00.177Z,26.20
2022-12-23T13:00:32.854Z,24.98
2022-12-23T13:03:25.091Z,25.38
2022-12-23T13:06:15.155Z,26.00
2022-12-23T13:09:00.606Z,25.02
2022-12-23T13:11:45.437Z,37.17
2022-12-23T13:14:34.185Z,23.27
2022-12-23T13:17:15.802Z,28.52
2022-12-23T13:19:54.066Z,25.35
2022-12-23T13:22:31.276Z,27.25
2022-12-23T13:25:07.828Z,28.13
2022-12-23T13:27:47.358Z,28.05
2022-12-23T13:30:21.923Z,28.85
2022-12-23T13:33:10.987Z,28.27
2022-12-23T13:36:18.603Z,36.70
2022-12-23T13:39:01.965Z,30.83
2022-12-23T13:41:36.053Z,35.17
2022-12-23T13:44:13.652Z,30.75
2022-12-23T13:46:55.216Z,31.25
2022-12-23T13:49:35.900Z,41.63
2022-12-23T13:52:13.680Z,45.78
2022-12-23T13:54:58.459Z,65.60
2022-12-23T13:57:46.762Z,70.45
2022-12-23T14:00:34.009Z,82.75
2022-12-23T14:03:27.349Z,81.78
2022-12-23T14:05:58.306Z,90.82
2022-12-23T14:08:34.547Z,92.05
2022-12-23T14:11:13.729Z,94.55
2022-12-23T14:13:47.030Z,101.68
2022-12-23T14:16:38.049Z,105.22
2022-12-23T14:19:36.465Z,105.15
2022-12-23T14:22:25.910Z,134.32
2022-12-23T14:25:37.085Z,125.07
2022-12-23T14:28:24.084Z,147.38
2022-12-23T14:30:55.931Z,118.70
2022-12-23T14:33:34.454Z,111.18
2022-12-23T14:36:25.245Z,113.88
2022-12-23T14:39:25.569Z,107.50
2022-12-23T14:42:03.404Z,98.43
2022-12-23T14:44:54.208Z,108.97
2022-12-23T14:47:40.384Z,103.95
2022-12-23T14:50:44.099Z,106.75
2022-12-23T14:53:27.245Z,129.77
2022-12-23T14:56:26.669Z,124.13
2022-12-23T14:59:15.342Z,126.50
2022-12-23T15:01:51.010Z,122.25
2022-12-23T15:04:25.437Z,117.25
2022-12-23T15:07:02.746Z,115.78
2022-12-23T15:09:35.607Z,115.65
2022-12-23T15:12:15.749Z,118.57
2022-12-23T15:14:50.102Z,125.40
2022-12-23T15:17:26.904Z,137.90
2022-12-23T15:20:05.252Z,138.43
2022-12-23T15:22:38.084Z,122.30
2022-12-23T15:25:21.456Z,140.30
2022-12-23T15:27:57.323Z,189.27
2022-12-23T15:30:37.152Z,143.93
2022-12-23T15:33:34.860Z,118.80
2022-12-23T15:36:05.077Z,106.03
2022-12-23T15:38:41.500Z,115.57
2022-12-23T15:41:18.813Z,118.10
2022-12-23T15:43:48.990Z,120.72
2022-12-23T15:46:28.749Z,127.65
2022-12-23T15:49:00.166Z,111.78
2022-12-23T15:52:07.085Z,107.82
2022-12-23T15:54:33.342Z,99.88
2022-12-23T15:57:05.386Z,114.75
2022-12-23T15:59:39.570Z,129.38
2022-12-23T16:02:49.728Z,137.50
2022-12-23T16:05:05.898Z,148.27
2022-12-23T16:07:37.869Z,142.63
2022-12-23T16:10:16.965Z,130.65
2022-12-23T16:12:47.659Z,134.93
2022-12-23T16:15:25.784Z,114.85
2022-12-23T16:18:13.889Z,127.20
2022-12-23T16:20:46.610Z,130.00
2022-12-23T16:23:17.499Z,143.05
2022-12-23T16:25:54.443Z,122.75
2022-12-23T16:28:29.738Z,253.52
2022-12-23T16:31:01.662Z,193.65
2022-12-23T16:33:39.888Z,140.82
2022-12-23T16:36:22.020Z,142.82
2022-12-23T16:38:53.651Z,145.77
2022-12-23T16:41:26.560Z,132.70
2022-12-23T16:43:56.646Z,121.15
2022-12-23T16:46:29.286Z,120.68
2022-12-23T16:49:05.097Z,121.93
2022-12-23T16:51:36.674Z,127.40
2022-12-23T16:54:07.126Z,132.20
2022-12-23T16:56:40.927Z,125.18
2022-12-23T16:59:11.433Z,125.80
2022-12-23T17:01:43.550Z,125.03
2022-12-23T17:04:13.940Z,140.10
2022-12-23T17:06:46.708Z,133.32
2022-12-23T17:09:16.825Z,130.43
2022-12-23T17:11:51.766Z,119.13
2022-12-23T17:14:23.460Z,111.45
2022-12-23T17:16:54.404Z,113.35
2022-12-23T17:19:29.337Z,122.85
2022-12-23T17:22:04.655Z,114.88
2022-12-23T17:24:34.762Z,122.65
2022-12-23T17:27:15.554Z,131.25
2022-12-23T17:29:45.920Z,131.32
2022-12-23T17:32:17.848Z,138.35
2022-12-23T17:34:48.383Z,136.07
2022-12-23T17:37:25.762Z,145.85
2022-12-23T17:39:55.821Z,160.52
2022-12-23T17:42:28.657Z,163.18
2022-12-23T17:44:58.692Z,159.10
2022-12-23T17:47:30.458Z,154.35
2022-12-23T17:50:00.621Z,140.63
2022-12-23T17:52:30.785Z,154.13
2022-12-23T17:55:03.712Z,145.48
2022-12-23T17:57:36.600Z,136.75
2022-12-23T18:00:08.058Z,116.53
2022-12-23T18:02:42.558Z,132.48
2022-12-23T18:05:23.448Z,134.95
2022-12-23T18:07:54.801Z,152.50
2022-12-23T18:10:28.217Z,160.32
2022-12-23T18:13:04.573Z,148.18
2022-12-23T18:15:38.332Z,164.95
2022-12-23T18:18:17.905Z,183.02
2022-12-23T18:20:55.386Z,165.43
2022-12-23T18:23:28.291Z,145.70
2022-12-23T18:25:59.439Z,134.73
2022-12-23T18:28:35.078Z,165.20
2022-12-23T18:31:05.956Z,133.23
2022-12-23T18:33:36.129Z,182.95
2022-12-23T18:36:06.626Z,179.32
2022-12-23T18:38:36.700Z,167.27
2022-12-23T18:41:06.782Z,196.48
2022-12-23T18:43:39.466Z,175.43
2022-12-23T18:46:09.708Z,170.30
2022-12-23T18:48:39.905Z,158.25
2022-12-23T18:51:10.718Z,151.38
2022-12-23T18:53:41.788Z,157.90
2022-12-23T18:56:15.781Z,197.68
2022-12-23T18:58:48.526Z,142.65
2022-12-23T19:01:20.136Z,137.38
2022-12-23T19:03:50.562Z,145.55
2022-12-23T19:06:20.761Z,168.98
2022-12-23T19:08:51.176Z,183.07
2022-12-23T19:11:23.616Z,154.05
2022-12-23T19:13:56.579Z,161.45
2022-12-23T19:16:27.041Z,176.33
2022-12-23T19:18:57.209Z,198.63
2022-12-23T19:21:27.320Z,174.30
2022-12-23T19:23:58.421Z,170.70
2022-12-23T19:26:28.555Z,156.77
2022-12-23T19:29:01.280Z,155.23
2022-12-23T19:31:34.303Z,151.38
2022-12-23T19:34:11.096Z,190.65
2022-12-23T19:36:48.298Z,167.35
2022-12-23T19:39:22.059Z,193.98
2022-12-23T19:41:54.538Z,181.60
2022-12-23T19:44:28.352Z,182.18
2022-12-23T19:49:30.068Z,168.23
2022-12-23T19:52:01.453Z,185.52
2022-12-23T19:54:32.127Z,161.27
2022-12-23T19:57:02.399Z,161.88
2022-12-23T19:59:35.861Z,170.73
2022-12-23T20:02:09.055Z,170.10
2022-12-23T20:04:45.333Z,197.05
2022-12-23T20:07:16.155Z,174.65
2022-12-23T20:09:47.479Z,176.00
2022-12-23T20:12:19.473Z,203.13
2022-12-23T20:14:52.397Z,165.23
2022-12-23T20:17:22.872Z,155.82
2022-12-23T20:19:53.182Z,209.35
2022-12-23T20:22:24.663Z,155.48
2022-12-23T20:24:55.247Z,160.23
2022-12-23T20:27:28.218Z,155.23
2022-12-23T20:30:01.921Z,631.85
2022-12-23T20:32:32.065Z,303.42
2022-12-23T20:35:02.395Z,301.02
2022-12-23T20:37:32.469Z,266.65
2022-12-23T20:40:05.330Z,347.95
2022-12-23T20:42:35.475Z,350.63
2022-12-23T20:45:09.805Z,365.77
2022-12-23T20:47:40.197Z,368.02
2022-12-23T20:50:12.132Z,304.08
2022-12-23T20:52:42.345Z,325.08
2022-12-23T20:55:13.763Z,297.48
2022-12-23T20:57:43.965Z,308.60
2022-12-23T21:00:22.703Z,362.80
2022-12-23T21:02:53.989Z,296.75
2022-12-23T21:05:25.074Z,285.40
2022-12-23T21:07:57.296Z,308.85
2022-12-23T21:10:30.329Z,310.65
2022-12-23T21:13:01.945Z,282.03
2022-12-23T21:15:35.542Z,241.63
2022-12-23T21:18:05.795Z,256.10
2022-12-23T21:20:35.868Z,225.98
2022-12-23T21:23:08.773Z,189.93
2022-12-23T21:25:38.820Z,188.95
2022-12-23T21:28:09.115Z,172.52
2022-12-23T21:30:42.677Z,177.80
2022-12-23T21:33:13.879Z,157.57
2022-12-23T21:35:44.171Z,141.02
2022-12-23T21:38:14.614Z,144.63
2022-12-23T21:40:44.779Z,145.55
2022-12-23T21:43:15.091Z,144.88
2022-12-23T21:45:48.374Z,139.10
2022-12-23T21:48:19.520Z,140.02
2022-12-23T21:50:56.876Z,133.65
2022-12-23T21:53:27.020Z,141.75
2022-12-23T21:56:02.706Z,135.98
2022-12-23T21:58:32.903Z,128.68
2022-12-23T22:01:10.694Z,124.03
2022-12-23T22:03:41.403Z,121.85
2022-12-23T22:06:14.742Z,122.60
2022-12-23T22:08:45.540Z,122.47
2022-12-23T22:11:18.344Z,135.40
2022-12-23T22:13:49.136Z,121.68
2022-12-23T22:16:24.652Z,114.07
2022-12-23T22:18:55.800Z,111.68
2022-12-23T22:21:28.626Z,109.78
2022-12-23T22:23:59.319Z,111.10
2022-12-23T22:26:32.862Z,105.30
2022-12-23T22:29:06.249Z,110.85
2022-12-23T22:31:44.815Z,115.80
2022-12-23T22:34:17.566Z,114.38
2022-12-23T22:36:51.178Z,119.95
2022-12-23T22:39:23.289Z,116.97
2022-12-23T22:41:55.305Z,132.60
2022-12-23T22:44:25.599Z,129.43
2022-12-23T22:46:59.104Z,143.68
2022-12-23T22:49:30.055Z,156.73
2022-12-23T22:52:01.364Z,157.15
2022-12-23T22:54:32.075Z,141.35
2022-12-23T22:57:02.219Z,136.95
2022-12-23T22:59:33.104Z,137.05
2022-12-23T23:02:07.677Z,134.60
2022-12-23T23:04:37.915Z,134.75
2022-12-23T23:07:09.851Z,136.93
2022-12-23T23:09:41.395Z,141.25
2022-12-23T23:12:20.277Z,137.68
2022-12-23T23:14:56.774Z,140.70
2022-12-23T23:17:32.068Z,136.65
2022-12-23T23:20:03.259Z,83.07
2022-12-23T23:22:33.325Z,75.20
2022-12-23T23:25:03.426Z,73.65
2022-12-23T23:27:33.580Z,75.88
2022-12-23T23:30:03.903Z,78.50
2022-12-23T23:32:36.764Z,78.63
2022-12-23T23:35:10.880Z,81.13
2022-12-23T23:37:41.292Z,81.10
2022-12-23T23:40:13.408Z,80.90
2022-12-23T23:42:44.454Z,77.82
2022-12-23T23:45:15.877Z,78.50
2022-12-23T23:47:50.007Z,77.55
2022-12-23T23:50:21.383Z,75.65
2022-12-23T23:52:52.922Z,76.05
2022-12-23T23:55:23.000Z,69.25
2022-12-23T23:57:53.024Z,66.05
